Eemslift Nelli — PCUT — position and weather

sailwx.info

Track history (hours):
 
Tides and Currents Weather Stations Pressure Air Temp Water Temp Dewpoint Dewpoint Depression Visibility Wind Speed Wind Dir Waves Ship Positions

Eemslift Nelli

Last reported at 2018-Jun-21 18:01 UTC. Time now 2018-Jun-21 18:05 UTC.
Position N 46°21' W 002°09'.

Length 111 m; draft 4.9 m.

Type: Cargo ship. MMSI: 244790607.

Date/timePositionNaut miles runAvg speedWind from/ knotsBaromVisibWave heightAir tempDewpointWater temp
2018-Jun-21 18:01N 46°21' W 002°09'612.2
2018-Jun-21 17:31N 46°18' W 002°02'612.5
2018-Jun-21 17:01N 46°14' W 001°55'613.0
2018-Jun-21 16:31N 46°10' W 001°47'612.7
2018-Jun-21 16:00N 46°08' W 001°39'713.7
2018-Jun-21 15:30N 46°07' W 001°29'714.8
2018-Jun-21 15:01N 46°06' W 001°18'5 8.4
2018-Jun-21 14:28N 46°10' W 001°14'0 0.0
2018-Jun-21 13:58N 46°10' W 001°14'0 0.0
2018-Jun-21 13:28N 46°10' W 001°14'0 0.0
2018-Jun-21 12:58N 46°10' W 001°14'0 0.0
2018-Jun-21 12:28N 46°10' W 001°14'0 0.0
2018-Jun-21 11:58N 46°10' W 001°14'0 0.0
2018-Jun-21 11:28N 46°10' W 001°14'0 0.0
2018-Jun-21 10:58N 46°10' W 001°14'0 0.0
2018-Jun-21 10:28N 46°10' W 001°14'0 0.0
2018-Jun-21 09:58N 46°10' W 001°14'0 0.0
2018-Jun-21 09:28N 46°10' W 001°14'0 0.0
2018-Jun-21 08:58N 46°10' W 001°14'0 0.0
2018-Jun-21 08:28N 46°10' W 001°14'0 0.0
2018-Jun-21 07:58N 46°10' W 001°14'0 0.0
2018-Jun-21 07:28N 46°10' W 001°14'0 0.0
2018-Jun-21 06:58N 46°10' W 001°14'0 0.0
2018-Jun-21 06:28N 46°10' W 001°14'0 0.0
2018-Jun-21 05:58N 46°10' W 001°14'0 0.0
2018-Jun-21 05:28N 46°10' W 001°14'0 0.0
2018-Jun-21 04:58N 46°10' W 001°14'0 0.0
2018-Jun-21 04:28N 46°10' W 001°14'0 0.0
2018-Jun-21 03:58N 46°10' W 001°14'0 0.0
2018-Jun-21 03:28N 46°10' W 001°14'0 0.0
2018-Jun-21 02:58N 46°10' W 001°14'0 0.0
2018-Jun-21 02:28N 46°10' W 001°14'0 0.0
2018-Jun-21 01:58N 46°10' W 001°14'0 0.0
2018-Jun-21 01:28N 46°10' W 001°14'0 0.0
2018-Jun-21 00:58N 46°10' W 001°14'0 0.0
2018-Jun-21 00:28N 46°10' W 001°14'0 0.0
2018-Jun-20 23:58N 46°10' W 001°14'0 0.0
2018-Jun-20 23:28N 46°10' W 001°14'0 0.0
2018-Jun-20 22:58N 46°10' W 001°14'0 0.0
2018-Jun-20 22:28N 46°10' W 001°14'0 0.0
2018-Jun-20 21:58N 46°10' W 001°14'0 0.0
2018-Jun-20 21:28N 46°10' W 001°14'0 0.0
2018-Jun-20 20:58N 46°10' W 001°14'0 0.0
2018-Jun-20 20:28N 46°10' W 001°14'0 0.0
2018-Jun-20 20:00N 46°10' W 001°14'2 3.9
2018-Jun-20 19:30N 46°08' W 001°15'510.6
2018-Jun-20 19:00N 46°06' W 001°22'815.5
2018-Jun-20 18:30N 46°07' W 001°33'715.0
2018-Jun-20 18:00N 46°08' W 001°44'815.5
2018-Jun-20 17:31N 46°05' W 001°54'3315.1
2018-Jun-20 15:20N 45°51' W 002°37'514.8
2018-Jun-20 15:00N 45°48' W 002°44'714.6
2018-Jun-20 14:30N 45°45' W 002°53'814.7
2018-Jun-20 13:59N 45°42' W 003°03'714.4
2018-Jun-20 13:30N 45°39' W 003°12'814.1
2018-Jun-20 12:57N 45°36' W 003°22'40811.6
2018-Jun-19 01:49N 40°41' W 009°49'410.7
2018-Jun-19 01:29N 40°38' W 009°49'510.6
2018-Jun-19 01:00N 40°32' W 009°49'611.2
2018-Jun-19 00:30N 40°27' W 009°50'612.0
2018-Jun-18 23:59N 40°21' W 009°50'612.7
2018-Jun-18 23:30N 40°15' W 009°50'612.9
2018-Jun-18 23:00N 40°08' W 009°50'713.2
2018-Jun-18 22:28N 40°01' W 009°50'613.4
2018-Jun-18 22:00N 39°55' W 009°50'713.2
2018-Jun-18 21:30N 39°48' W 009°50'613.2
2018-Jun-18 21:00N 39°42' W 009°50'612.9
2018-Jun-18 20:30N 39°35' W 009°50'713.0
2018-Jun-18 20:00N 39°29' W 009°50'713.4
2018-Jun-18 19:30N 39°22' W 009°50'713.3
2018-Jun-18 19:00N 39°15' W 009°50'713.3
2018-Jun-18 18:30N 39°09' W 009°49'713.0
2018-Jun-18 18:00N 39°02' W 009°50'713.3
2018-Jun-18 17:30N 38°56' W 009°50'713.3
2018-Jun-18 17:00N 38°49' W 009°50'713.3
2018-Jun-18 16:30N 38°42' W 009°50'612.9
2018-Jun-18 16:00N 38°36' W 009°48'612.6
2018-Jun-18 15:30N 38°30' W 009°46'612.6
2018-Jun-18 15:00N 38°24' W 009°44'612.6
2018-Jun-18 14:30N 38°18' W 009°42'613.0
2018-Jun-18 14:00N 38°11' W 009°40'713.2
2018-Jun-18 13:30N 38°05' W 009°39'713.3
2018-Jun-18 13:00N 37°58' W 009°37'713.4
2018-Jun-18 12:30N 37°52' W 009°36'713.4
2018-Jun-18 12:00N 37°45' W 009°34'713.5
2018-Jun-18 11:30N 37°39' W 009°32'713.4
2018-Jun-18 11:00N 37°32' W 009°29'813.9
2018-Jun-18 10:27N 37°25' W 009°28'613.9
2018-Jun-18 10:00N 37°19' W 009°26'714.0
2018-Jun-18 09:31N 37°12' W 009°24'713.4
2018-Jun-18 09:01N 37°05' W 009°22'713.7
2018-Jun-18 08:29N 36°58' W 009°20'713.7
2018-Jun-18 08:00N 36°52' W 009°17'713.9
2018-Jun-18 07:30N 36°47' W 009°11'713.5
2018-Jun-18 07:00N 36°44' W 009°04'714.3
2018-Jun-18 06:30N 36°42' W 008°56'714.5
2018-Jun-18 06:00N 36°39' W 008°47'714.4
2018-Jun-18 05:31N 36°37' W 008°39'714.5
2018-Jun-18 05:01N 36°35' W 008°30'714.8
2018-Jun-18 04:30N 36°32' W 008°21'814.9
2018-Jun-18 04:00N 36°30' W 008°12'714.8
2018-Jun-18 03:30N 36°28' W 008°04'815.0
2018-Jun-18 03:00N 36°26' W 007°55'8615.1
2018-Jun-17 21:21N 35°59' W 006°14'613.8
2018-Jun-17 20:54N 35°58' W 006°07'1213.5
2018-Jun-17 20:01N 35°58' W 005°52'012.8
2018-Jun-17 20:00N 35°58' W 005°51'612.2
2018-Jun-17 19:29N 35°58' W 005°44'612.4
2018-Jun-17 18:59N 35°58' W 005°36'613.2
2018-Jun-17 18:30N 35°59' W 005°28'612.7
2018-Jun-17 18:01N 35°59' W 005°20'611.3
2018-Jun-17 17:29N 35°54' W 005°18'0 0.0
2018-Jun-17 16:59N 35°54' W 005°18'0 0.0
2018-Jun-17 16:29N 35°54' W 005°18'0 0.0
2018-Jun-17 15:59N 35°54' W 005°18'0 0.0
2018-Jun-17 15:29N 35°54' W 005°18'0 0.0
2018-Jun-17 14:59N 35°54' W 005°18'0 0.0
2018-Jun-17 14:29N 35°54' W 005°18'0 0.0
2018-Jun-17 13:59N 35°54' W 005°18'0 0.1
2018-Jun-17 13:31N 35°54' W 005°18'2 4.3
2018-Jun-17 13:01N 35°56' W 005°20'0 0.3
2018-Jun-17 12:29N 35°56' W 005°20'0 0.0
2018-Jun-17 11:59N 35°56' W 005°20'0 0.0
2018-Jun-17 11:29N 35°56' W 005°20'0 0.1
2018-Jun-17 10:59N 35°56' W 005°20'0 0.0
2018-Jun-17 10:29N 35°56' W 005°20'0 0.6
2018-Jun-17 10:00N 35°55' W 005°20'5 9.3
2018-Jun-17 09:30N 35°56' W 005°14'913.7
2018-Jun-17 08:52N 35°57' W 005°03'17814.2
2018-Jun-16 20:17N 36°25' W 001°25'1114.8
2018-Jun-16 19:34N 36°27' W 001°12'215.0
2018-Jun-16 19:25N 36°27' W 001°10'614.9
2018-Jun-16 19:01N 36°29' W 001°02'914.9
2018-Jun-16 18:24N 36°31' W 000°51'615.0
2018-Jun-16 18:00N 36°32' W 000°44'815.4
2018-Jun-16 17:30N 36°33' W 000°35'815.2
2018-Jun-16 16:59N 36°35' W 000°25'715.3
2018-Jun-16 16:30N 36°37' W 000°16'715.2
2018-Jun-16 16:00N 36°39' W 000°07'815.5
2018-Jun-16 15:31N 36°40' E 000°02'815.6
2018-Jun-16 15:00N 36°42' E 000°12'815.4
2018-Jun-16 14:30N 36°43' E 000°22'815.6
2018-Jun-16 14:00N 36°45' E 000°31'815.5
2018-Jun-16 13:31N 36°47' E 000°40'815.3
2018-Jun-16 13:01N 36°48' E 000°50'815.1
2018-Jun-16 12:30N 36°50' E 000°59'815.1
2018-Jun-16 11:59N 36°51' E 001°09'714.9
2018-Jun-16 11:30N 36°53' E 001°18'714.9
2018-Jun-16 11:00N 36°54' E 001°27'714.8
2018-Jun-16 10:30N 36°56' E 001°36'714.7
2018-Jun-16 10:00N 36°57' E 001°45'714.7
2018-Jun-16 09:31N 36°59' E 001°53'714.7
2018-Jun-16 09:00N 37°01' E 002°02'714.4
2018-Jun-16 08:31N 37°02' E 002°11'714.1
2018-Jun-16 08:00N 37°04' E 002°20'713.6
2018-Jun-16 07:30N 37°05' E 002°28'713.7
2018-Jun-16 07:00N 37°06' E 002°37'714.3
2018-Jun-16 06:30N 37°08' E 002°45'815.0
2018-Jun-16 06:00N 37°09' E 002°55'815.3
2018-Jun-16 05:30N 37°10' E 003°04'815.8
2018-Jun-16 05:00N 37°12' E 003°14'815.8
2018-Jun-16 04:30N 37°13' E 003°24'2015.9
2018-Jun-16 03:15N 37°16' E 003°49'415.4
2018-Jun-16 03:00N 37°17' E 003°53'1614.9
2018-Jun-16 01:55N 37°19' E 004°13'814.8
2018-Jun-16 01:25N 37°20' E 004°23'814.9
2018-Jun-16 00:52N 37°21' E 004°33'514.9
2018-Jun-16 00:30N 37°22' E 004°40'38213.6
2018-Jun-14 20:29N 38°19' E 012°38'913.6
2018-Jun-14 19:48N 38°20' E 012°50'713.4
2018-Jun-14 19:17N 38°22' E 012°58'413.3
2018-Jun-14 19:00N 38°23' E 013°03'712.5
2018-Jun-14 18:27N 38°24' E 013°11'512.1
2018-Jun-14 18:00N 38°25' E 013°18'611.3
2018-Jun-14 17:30N 38°25' E 013°25'612.4
2018-Jun-14 17:00N 38°25' E 013°33'611.9
2018-Jun-14 16:30N 38°24' E 013°41'611.7
2018-Jun-14 15:59N 38°24' E 013°48'611.8
2018-Jun-14 15:29N 38°23' E 013°56'3112.4
2018-Jun-14 12:57N 38°21' E 014°36'612.7
2018-Jun-14 12:28N 38°21' E 014°44'613.7
2018-Jun-14 11:59N 38°20' E 014°52'713.6
2018-Jun-14 11:30N 38°19' E 015°01'714.1
2018-Jun-14 11:00N 38°20' E 015°10'713.6
2018-Jun-14 10:30N 38°20' E 015°18'714.1
2018-Jun-14 10:00N 38°20' E 015°27'713.6
2018-Jun-14 09:30N 38°20' E 015°36'6 9.7
2018-Jun-14 08:56N 38°15' E 015°40'510.7
2018-Jun-14 08:30N 38°12' E 015°37'714.8
2018-Jun-14 08:00N 38°04' E 015°36'814.7
2018-Jun-14 07:26N 37°56' E 015°40'614.7
2018-Jun-14 07:00N 37°53' E 015°46'16412.8
2018-Jun-13 18:11N 40°24' E 017°08'213.7
2018-Jun-13 18:00N 40°26' E 017°10'4 6.4
2018-Jun-13 17:25N 40°29' E 017°13'0 0.0
2018-Jun-13 16:55N 40°29' E 017°13'0 0.0
2018-Jun-13 16:25N 40°29' E 017°13'0 0.0
2018-Jun-13 15:58N 40°29' E 017°13'0 0.0
2018-Jun-13 15:28N 40°29' E 017°13'0 0.0
2018-Jun-13 14:58N 40°29' E 017°13'0 0.0
2018-Jun-13 14:28N 40°29' E 017°13'0 0.0
2018-Jun-13 13:58N 40°29' E 017°13'0 0.0
2018-Jun-13 13:28N 40°29' E 017°13'0 0.0
2018-Jun-13 12:58N 40°29' E 017°13'0 0.0
2018-Jun-13 12:28N 40°29' E 017°13'0 0.0
2018-Jun-13 11:58N 40°29' E 017°13'0 0.0
2018-Jun-13 11:28N 40°29' E 017°13'0 0.0
2018-Jun-13 10:58N 40°29' E 017°13'0 0.0
2018-Jun-13 10:28N 40°29' E 017°13'0 0.0
2018-Jun-13 09:58N 40°29' E 017°13'0 0.0
2018-Jun-13 09:28N 40°29' E 017°13'0 0.0
2018-Jun-13 08:58N 40°29' E 017°13'0 0.0
2018-Jun-13 08:28N 40°29' E 017°13'0 0.0
2018-Jun-13 07:55N 40°29' E 017°13'0 0.0
2018-Jun-13 07:28N 40°29' E 017°13'0 0.0
2018-Jun-13 06:58N 40°29' E 017°13'0 0.0
2018-Jun-13 06:28N 40°29' E 017°13'0 0.0
2018-Jun-13 05:58N 40°29' E 017°13'0 0.0
2018-Jun-13 05:25N 40°29' E 017°13'0 0.0
2018-Jun-13 04:58N 40°29' E 017°13'0 0.0
2018-Jun-13 04:28N 40°29' E 017°13'0 0.0
2018-Jun-13 03:58N 40°29' E 017°13'0 0.0
2018-Jun-13 03:28N 40°29' E 017°13'0 0.0
2018-Jun-13 02:58N 40°29' E 017°13'0 0.0
2018-Jun-13 02:28N 40°29' E 017°13'0 0.0
2018-Jun-13 01:58N 40°29' E 017°13'0 0.0
2018-Jun-13 01:28N 40°29' E 017°13'0 0.0
2018-Jun-13 00:58N 40°29' E 017°13'0 0.0
2018-Jun-13 00:28N 40°29' E 017°13'0 0.0
2018-Jun-12 23:58N 40°29' E 017°13'0 0.0
2018-Jun-12 23:28N 40°29' E 017°13'0 0.0
2018-Jun-12 22:55N 40°29' E 017°13'0 0.0
2018-Jun-12 22:28N 40°29' E 017°13'0 0.0
2018-Jun-12 21:58N 40°29' E 017°13'0 0.0
2018-Jun-12 21:28N 40°29' E 017°13'0 0.0
2018-Jun-12 20:58N 40°29' E 017°13'0 0.0
2018-Jun-12 20:28N 40°29' E 017°13'0 0.0
2018-Jun-12 19:58N 40°29' E 017°13'0 0.0
2018-Jun-12 19:28N 40°29' E 017°13'0 0.0
2018-Jun-12 18:58N 40°29' E 017°13'0 0.0
2018-Jun-12 18:28N 40°29' E 017°13'0 0.0
2018-Jun-12 17:58N 40°29' E 017°13'0 0.0
2018-Jun-12 17:28N 40°29' E 017°13'0 0.0
2018-Jun-12 16:58N 40°29' E 017°13'0 0.0
2018-Jun-12 16:28N 40°29' E 017°13'0 0.0
2018-Jun-12 15:58N 40°29' E 017°13'0 0.0
2018-Jun-12 15:28N 40°29' E 017°13'0 0.0
2018-Jun-12 14:58N 40°29' E 017°13'0 0.0
2018-Jun-12 14:28N 40°29' E 017°13'0 0.0
2018-Jun-12 13:58N 40°29' E 017°13'0 0.0
2018-Jun-12 13:28N 40°29' E 017°13'0 0.0
2018-Jun-12 12:58N 40°29' E 017°13'0 0.0
2018-Jun-12 12:25N 40°29' E 017°13'0 0.0
2018-Jun-12 11:58N 40°29' E 017°13'0 0.1
2018-Jun-12 11:30N 40°29' E 017°13'4 7.6
2018-Jun-12 11:00N 40°25' E 017°10'2 3.8
2018-Jun-12 10:26N 40°24' E 017°08'1 3.2
2018-Jun-12 10:00N 40°23' E 017°09'  
Track history (hours):
 
Tides and Currents Weather Stations Pressure Air Temp Water Temp Dewpoint Dewpoint Depression Visibility Wind Speed Wind Dir Waves Ship Positions

Eemslift Nelli

Last reported at 2018-Jun-21 18:01 UTC. Time now 2018-Jun-21 18:05 UTC.
Position N 46°21' W 002°09'.

Length 111 m; draft 4.9 m.

Type: Cargo ship. MMSI: 244790607.

Date/timePositionNaut miles runAvg speedWind from/ knotsBaromVisibWave heightAir tempDewpointWater temp
2018-Jun-21 18:01N 46°21' W 002°09'612.2
2018-Jun-21 17:31N 46°18' W 002°02'612.5
2018-Jun-21 17:01N 46°14' W 001°55'613.0
2018-Jun-21 16:31N 46°10' W 001°47'612.7
2018-Jun-21 16:00N 46°08' W 001°39'713.7
2018-Jun-21 15:30N 46°07' W 001°29'714.8
2018-Jun-21 15:01N 46°06' W 001°18'5 8.4
2018-Jun-21 14:28N 46°10' W 001°14'0 0.0
2018-Jun-21 13:58N 46°10' W 001°14'0 0.0
2018-Jun-21 13:28N 46°10' W 001°14'0 0.0
2018-Jun-21 12:58N 46°10' W 001°14'0 0.0
2018-Jun-21 12:28N 46°10' W 001°14'0 0.0
2018-Jun-21 11:58N 46°10' W 001°14'0 0.0
2018-Jun-21 11:28N 46°10' W 001°14'0 0.0
2018-Jun-21 10:58N 46°10' W 001°14'0 0.0
2018-Jun-21 10:28N 46°10' W 001°14'0 0.0
2018-Jun-21 09:58N 46°10' W 001°14'0 0.0
2018-Jun-21 09:28N 46°10' W 001°14'0 0.0
2018-Jun-21 08:58N 46°10' W 001°14'0 0.0
2018-Jun-21 08:28N 46°10' W 001°14'0 0.0
2018-Jun-21 07:58N 46°10' W 001°14'0 0.0
2018-Jun-21 07:28N 46°10' W 001°14'0 0.0
2018-Jun-21 06:58N 46°10' W 001°14'0 0.0
2018-Jun-21 06:28N 46°10' W 001°14'0 0.0
2018-Jun-21 05:58N 46°10' W 001°14'0 0.0
2018-Jun-21 05:28N 46°10' W 001°14'0 0.0
2018-Jun-21 04:58N 46°10' W 001°14'0 0.0
2018-Jun-21 04:28N 46°10' W 001°14'0 0.0
2018-Jun-21 03:58N 46°10' W 001°14'0 0.0
2018-Jun-21 03:28N 46°10' W 001°14'0 0.0
2018-Jun-21 02:58N 46°10' W 001°14'0 0.0
2018-Jun-21 02:28N 46°10' W 001°14'0 0.0
2018-Jun-21 01:58N 46°10' W 001°14'0 0.0
2018-Jun-21 01:28N 46°10' W 001°14'0 0.0
2018-Jun-21 00:58N 46°10' W 001°14'0 0.0
2018-Jun-21 00:28N 46°10' W 001°14'0 0.0
2018-Jun-20 23:58N 46°10' W 001°14'0 0.0
2018-Jun-20 23:28N 46°10' W 001°14'0 0.0
2018-Jun-20 22:58N 46°10' W 001°14'0 0.0
2018-Jun-20 22:28N 46°10' W 001°14'0 0.0
2018-Jun-20 21:58N 46°10' W 001°14'0 0.0
2018-Jun-20 21:28N 46°10' W 001°14'0 0.0
2018-Jun-20 20:58N 46°10' W 001°14'0 0.0
2018-Jun-20 20:28N 46°10' W 001°14'0 0.0
2018-Jun-20 20:00N 46°10' W 001°14'2 3.9
2018-Jun-20 19:30N 46°08' W 001°15'510.6
2018-Jun-20 19:00N 46°06' W 001°22'815.5
2018-Jun-20 18:30N 46°07' W 001°33'715.0
2018-Jun-20 18:00N 46°08' W 001°44'815.5
2018-Jun-20 17:31N 46°05' W 001°54'3315.1
2018-Jun-20 15:20N 45°51' W 002°37'514.8
2018-Jun-20 15:00N 45°48' W 002°44'714.6
2018-Jun-20 14:30N 45°45' W 002°53'814.7
2018-Jun-20 13:59N 45°42' W 003°03'714.4
2018-Jun-20 13:30N 45°39' W 003°12'814.1
2018-Jun-20 12:57N 45°36' W 003°22'40811.6
2018-Jun-19 01:49N 40°41' W 009°49'410.7
2018-Jun-19 01:29N 40°38' W 009°49'510.6
2018-Jun-19 01:00N 40°32' W 009°49'611.2
2018-Jun-19 00:30N 40°27' W 009°50'612.0
2018-Jun-18 23:59N 40°21' W 009°50'612.7
2018-Jun-18 23:30N 40°15' W 009°50'612.9
2018-Jun-18 23:00N 40°08' W 009°50'713.2
2018-Jun-18 22:28N 40°01' W 009°50'613.4
2018-Jun-18 22:00N 39°55' W 009°50'713.2
2018-Jun-18 21:30N 39°48' W 009°50'613.2
2018-Jun-18 21:00N 39°42' W 009°50'612.9
2018-Jun-18 20:30N 39°35' W 009°50'713.0
2018-Jun-18 20:00N 39°29' W 009°50'713.4
2018-Jun-18 19:30N 39°22' W 009°50'713.3
2018-Jun-18 19:00N 39°15' W 009°50'713.3
2018-Jun-18 18:30N 39°09' W 009°49'713.0
2018-Jun-18 18:00N 39°02' W 009°50'713.3
2018-Jun-18 17:30N 38°56' W 009°50'713.3
2018-Jun-18 17:00N 38°49' W 009°50'713.3
2018-Jun-18 16:30N 38°42' W 009°50'612.9
2018-Jun-18 16:00N 38°36' W 009°48'612.6
2018-Jun-18 15:30N 38°30' W 009°46'612.6
2018-Jun-18 15:00N 38°24' W 009°44'612.6
2018-Jun-18 14:30N 38°18' W 009°42'613.0
2018-Jun-18 14:00N 38°11' W 009°40'713.2
2018-Jun-18 13:30N 38°05' W 009°39'713.3
2018-Jun-18 13:00N 37°58' W 009°37'713.4
2018-Jun-18 12:30N 37°52' W 009°36'713.4
2018-Jun-18 12:00N 37°45' W 009°34'713.5
2018-Jun-18 11:30N 37°39' W 009°32'713.4
2018-Jun-18 11:00N 37°32' W 009°29'813.9
2018-Jun-18 10:27N 37°25' W 009°28'613.9
2018-Jun-18 10:00N 37°19' W 009°26'714.0
2018-Jun-18 09:31N 37°12' W 009°24'713.4
2018-Jun-18 09:01N 37°05' W 009°22'713.7
2018-Jun-18 08:29N 36°58' W 009°20'713.7
2018-Jun-18 08:00N 36°52' W 009°17'713.9
2018-Jun-18 07:30N 36°47' W 009°11'713.5
2018-Jun-18 07:00N 36°44' W 009°04'714.3
2018-Jun-18 06:30N 36°42' W 008°56'714.5
2018-Jun-18 06:00N 36°39' W 008°47'714.4
2018-Jun-18 05:31N 36°37' W 008°39'714.5
2018-Jun-18 05:01N 36°35' W 008°30'714.8
2018-Jun-18 04:30N 36°32' W 008°21'814.9
2018-Jun-18 04:00N 36°30' W 008°12'714.8
2018-Jun-18 03:30N 36°28' W 008°04'815.0
2018-Jun-18 03:00N 36°26' W 007°55'8615.1
2018-Jun-17 21:21N 35°59' W 006°14'613.8
2018-Jun-17 20:54N 35°58' W 006°07'1213.5
2018-Jun-17 20:01N 35°58' W 005°52'012.8
2018-Jun-17 20:00N 35°58' W 005°51'612.2
2018-Jun-17 19:29N 35°58' W 005°44'612.4
2018-Jun-17 18:59N 35°58' W 005°36'613.2
2018-Jun-17 18:30N 35°59' W 005°28'612.7
2018-Jun-17 18:01N 35°59' W 005°20'611.3
2018-Jun-17 17:29N 35°54' W 005°18'0 0.0
2018-Jun-17 16:59N 35°54' W 005°18'0 0.0
2018-Jun-17 16:29N 35°54' W 005°18'0 0.0
2018-Jun-17 15:59N 35°54' W 005°18'0 0.0
2018-Jun-17 15:29N 35°54' W 005°18'0 0.0
2018-Jun-17 14:59N 35°54' W 005°18'0 0.0
2018-Jun-17 14:29N 35°54' W 005°18'0 0.0
2018-Jun-17 13:59N 35°54' W 005°18'0 0.1
2018-Jun-17 13:31N 35°54' W 005°18'2 4.3
2018-Jun-17 13:01N 35°56' W 005°20'0 0.3
2018-Jun-17 12:29N 35°56' W 005°20'0 0.0
2018-Jun-17 11:59N 35°56' W 005°20'0 0.0
2018-Jun-17 11:29N 35°56' W 005°20'0 0.1
2018-Jun-17 10:59N 35°56' W 005°20'0 0.0
2018-Jun-17 10:29N 35°56' W 005°20'0 0.6
2018-Jun-17 10:00N 35°55' W 005°20'5 9.3
2018-Jun-17 09:30N 35°56' W 005°14'913.7
2018-Jun-17 08:52N 35°57' W 005°03'17814.2
2018-Jun-16 20:17N 36°25' W 001°25'1114.8
2018-Jun-16 19:34N 36°27' W 001°12'215.0
2018-Jun-16 19:25N 36°27' W 001°10'614.9
2018-Jun-16 19:01N 36°29' W 001°02'914.9
2018-Jun-16 18:24N 36°31' W 000°51'615.0
2018-Jun-16 18:00N 36°32' W 000°44'815.4
2018-Jun-16 17:30N 36°33' W 000°35'815.2
2018-Jun-16 16:59N 36°35' W 000°25'715.3
2018-Jun-16 16:30N 36°37' W 000°16'715.2
2018-Jun-16 16:00N 36°39' W 000°07'815.5
2018-Jun-16 15:31N 36°40' E 000°02'815.6
2018-Jun-16 15:00N 36°42' E 000°12'815.4
2018-Jun-16 14:30N 36°43' E 000°22'815.6
2018-Jun-16 14:00N 36°45' E 000°31'815.5
2018-Jun-16 13:31N 36°47' E 000°40'815.3
2018-Jun-16 13:01N 36°48' E 000°50'815.1
2018-Jun-16 12:30N 36°50' E 000°59'815.1
2018-Jun-16 11:59N 36°51' E 001°09'714.9
2018-Jun-16 11:30N 36°53' E 001°18'714.9
2018-Jun-16 11:00N 36°54' E 001°27'714.8
2018-Jun-16 10:30N 36°56' E 001°36'714.7
2018-Jun-16 10:00N 36°57' E 001°45'714.7
2018-Jun-16 09:31N 36°59' E 001°53'714.7
2018-Jun-16 09:00N 37°01' E 002°02'714.4
2018-Jun-16 08:31N 37°02' E 002°11'714.1
2018-Jun-16 08:00N 37°04' E 002°20'713.6
2018-Jun-16 07:30N 37°05' E 002°28'713.7
2018-Jun-16 07:00N 37°06' E 002°37'714.3
2018-Jun-16 06:30N 37°08' E 002°45'815.0
2018-Jun-16 06:00N 37°09' E 002°55'815.3
2018-Jun-16 05:30N 37°10' E 003°04'815.8
2018-Jun-16 05:00N 37°12' E 003°14'815.8
2018-Jun-16 04:30N 37°13' E 003°24'2015.9
2018-Jun-16 03:15N 37°16' E 003°49'415.4
2018-Jun-16 03:00N 37°17' E 003°53'1614.9
2018-Jun-16 01:55N 37°19' E 004°13'814.8
2018-Jun-16 01:25N 37°20' E 004°23'814.9
2018-Jun-16 00:52N 37°21' E 004°33'514.9
2018-Jun-16 00:30N 37°22' E 004°40'38213.6
2018-Jun-14 20:29N 38°19' E 012°38'913.6
2018-Jun-14 19:48N 38°20' E 012°50'713.4
2018-Jun-14 19:17N 38°22' E 012°58'413.3
2018-Jun-14 19:00N 38°23' E 013°03'712.5
2018-Jun-14 18:27N 38°24' E 013°11'512.1
2018-Jun-14 18:00N 38°25' E 013°18'611.3
2018-Jun-14 17:30N 38°25' E 013°25'612.4
2018-Jun-14 17:00N 38°25' E 013°33'611.9
2018-Jun-14 16:30N 38°24' E 013°41'611.7
2018-Jun-14 15:59N 38°24' E 013°48'611.8
2018-Jun-14 15:29N 38°23' E 013°56'3112.4
2018-Jun-14 12:57N 38°21' E 014°36'612.7
2018-Jun-14 12:28N 38°21' E 014°44'613.7
2018-Jun-14 11:59N 38°20' E 014°52'713.6
2018-Jun-14 11:30N 38°19' E 015°01'714.1
2018-Jun-14 11:00N 38°20' E 015°10'713.6
2018-Jun-14 10:30N 38°20' E 015°18'714.1
2018-Jun-14 10:00N 38°20' E 015°27'713.6
2018-Jun-14 09:30N 38°20' E 015°36'6 9.7
2018-Jun-14 08:56N 38°15' E 015°40'510.7
2018-Jun-14 08:30N 38°12' E 015°37'714.8
2018-Jun-14 08:00N 38°04' E 015°36'814.7
2018-Jun-14 07:26N 37°56' E 015°40'614.7
2018-Jun-14 07:00N 37°53' E 015°46'16412.8
2018-Jun-13 18:11N 40°24' E 017°08'213.7
2018-Jun-13 18:00N 40°26' E 017°10'4 6.4
2018-Jun-13 17:25N 40°29' E 017°13'0 0.0
2018-Jun-13 16:55N 40°29' E 017°13'0 0.0
2018-Jun-13 16:25N 40°29' E 017°13'0 0.0
2018-Jun-13 15:58N 40°29' E 017°13'0 0.0
2018-Jun-13 15:28N 40°29' E 017°13'0 0.0
2018-Jun-13 14:58N 40°29' E 017°13'0 0.0
2018-Jun-13 14:28N 40°29' E 017°13'0 0.0
2018-Jun-13 13:58N 40°29' E 017°13'0 0.0
2018-Jun-13 13:28N 40°29' E 017°13'0 0.0
2018-Jun-13 12:58N 40°29' E 017°13'0 0.0
2018-Jun-13 12:28N 40°29' E 017°13'0 0.0
2018-Jun-13 11:58N 40°29' E 017°13'0 0.0
2018-Jun-13 11:28N 40°29' E 017°13'0 0.0
2018-Jun-13 10:58N 40°29' E 017°13'0 0.0
2018-Jun-13 10:28N 40°29' E 017°13'0 0.0
2018-Jun-13 09:58N 40°29' E 017°13'0 0.0
2018-Jun-13 09:28N 40°29' E 017°13'0 0.0
2018-Jun-13 08:58N 40°29' E 017°13'0 0.0
2018-Jun-13 08:28N 40°29' E 017°13'0 0.0
2018-Jun-13 07:55N 40°29' E 017°13'0 0.0
2018-Jun-13 07:28N 40°29' E 017°13'0 0.0
2018-Jun-13 06:58N 40°29' E 017°13'0 0.0
2018-Jun-13 06:28N 40°29' E 017°13'0 0.0
2018-Jun-13 05:58N 40°29' E 017°13'0 0.0
2018-Jun-13 05:25N 40°29' E 017°13'0 0.0
2018-Jun-13 04:58N 40°29' E 017°13'0 0.0
2018-Jun-13 04:28N 40°29' E 017°13'0 0.0
2018-Jun-13 03:58N 40°29' E 017°13'0 0.0
2018-Jun-13 03:28N 40°29' E 017°13'0 0.0
2018-Jun-13 02:58N 40°29' E 017°13'0 0.0
2018-Jun-13 02:28N 40°29' E 017°13'0 0.0
2018-Jun-13 01:58N 40°29' E 017°13'0 0.0
2018-Jun-13 01:28N 40°29' E 017°13'0 0.0
2018-Jun-13 00:58N 40°29' E 017°13'0 0.0
2018-Jun-13 00:28N 40°29' E 017°13'0 0.0
2018-Jun-12 23:58N 40°29' E 017°13'0 0.0
2018-Jun-12 23:28N 40°29' E 017°13'0 0.0
2018-Jun-12 22:55N 40°29' E 017°13'0 0.0
2018-Jun-12 22:28N 40°29' E 017°13'0 0.0
2018-Jun-12 21:58N 40°29' E 017°13'0 0.0
2018-Jun-12 21:28N 40°29' E 017°13'0 0.0
2018-Jun-12 20:58N 40°29' E 017°13'0 0.0
2018-Jun-12 20:28N 40°29' E 017°13'0 0.0
2018-Jun-12 19:58N 40°29' E 017°13'0 0.0
2018-Jun-12 19:28N 40°29' E 017°13'0 0.0
2018-Jun-12 18:58N 40°29' E 017°13'0 0.0
2018-Jun-12 18:28N 40°29' E 017°13'0 0.0
2018-Jun-12 17:58N 40°29' E 017°13'0 0.0
2018-Jun-12 17:28N 40°29' E 017°13'0 0.0
2018-Jun-12 16:58N 40°29' E 017°13'0 0.0
2018-Jun-12 16:28N 40°29' E 017°13'0 0.0
2018-Jun-12 15:58N 40°29' E 017°13'0 0.0
2018-Jun-12 15:28N 40°29' E 017°13'0 0.0
2018-Jun-12 14:58N 40°29' E 017°13'0 0.0
2018-Jun-12 14:28N 40°29' E 017°13'0 0.0
2018-Jun-12 13:58N 40°29' E 017°13'0 0.0
2018-Jun-12 13:28N 40°29' E 017°13'0 0.0
2018-Jun-12 12:58N 40°29' E 017°13'0 0.0
2018-Jun-12 12:25N 40°29' E 017°13'0 0.0
2018-Jun-12 11:58N 40°29' E 017°13'0 0.1
2018-Jun-12 11:30N 40°29' E 017°13'4 7.6
2018-Jun-12 11:00N 40°25' E 017°10'2 3.8
2018-Jun-12 10:26N 40°24' E 017°08'1 3.2
2018-Jun-12 10:00N 40°23' E 017°09'  

Dump ship's entire track history